sensor_id;sensor_type;location;lat;lon;timestamp;P1;durP1;ratioP1;P2;durP2;ratioP2
313;SDS011;143;51.634;7.112;2023-04-06T00:00:32;18.48;;;9.70;;
313;SDS011;143;51.634;7.112;2023-04-06T00:02:58;14.90;;;9.47;;
313;SDS011;143;51.634;7.112;2023-04-06T00:05:23;13.30;;;9.00;;
313;SDS011;143;51.634;7.112;2023-04-06T00:07:49;18.43;;;9.80;;
313;SDS011;143;51.634;7.112;2023-04-06T00:10:16;14.83;;;9.70;;
313;SDS011;143;51.634;7.112;2023-04-06T00:12:42;14.70;;;8.63;;
313;SDS011;143;51.634;7.112;2023-04-06T00:15:08;15.27;;;9.50;;
313;SDS011;143;51.634;7.112;2023-04-06T00:17:34;13.00;;;9.30;;
313;SDS011;143;51.634;7.112;2023-04-06T00:20:00;17.97;;;10.10;;
313;SDS011;143;51.634;7.112;2023-04-06T00:22:25;20.47;;;11.30;;
313;SDS011;143;51.634;7.112;2023-04-06T00:24:51;16.63;;;9.83;;
313;SDS011;143;51.634;7.112;2023-04-06T00:27:17;14.03;;;9.90;;
313;SDS011;143;51.634;7.112;2023-04-06T00:29:43;13.63;;;8.40;;
313;SDS011;143;51.634;7.112;2023-04-06T00:32:09;15.90;;;10.02;;
313;SDS011;143;51.634;7.112;2023-04-06T00:34:35;13.87;;;8.67;;
313;SDS011;143;51.634;7.112;2023-04-06T00:37:01;17.87;;;9.60;;
313;SDS011;143;51.634;7.112;2023-04-06T00:39:27;16.47;;;9.97;;
313;SDS011;143;51.634;7.112;2023-04-06T00:41:52;22.53;;;9.07;;
313;SDS011;143;51.634;7.112;2023-04-06T00:44:20;17.65;;;9.98;;
313;SDS011;143;51.634;7.112;2023-04-06T00:46:46;15.20;;;9.00;;
313;SDS011;143;51.634;7.112;2023-04-06T00:49:12;13.30;;;8.47;;
313;SDS011;143;51.634;7.112;2023-04-06T00:51:38;12.70;;;7.37;;
313;SDS011;143;51.634;7.112;2023-04-06T00:54:03;18.33;;;8.10;;
313;SDS011;143;51.634;7.112;2023-04-06T00:56:30;15.35;;;8.60;;
313;SDS011;143;51.634;7.112;2023-04-06T00:58:56;18.17;;;10.07;;
313;SDS011;143;51.634;7.112;2023-04-06T01:01:23;18.30;;;10.87;;
313;SDS011;143;51.634;7.112;2023-04-06T01:03:49;17.80;;;11.60;;
313;SDS011;143;51.634;7.112;2023-04-06T01:06:15;20.10;;;10.23;;
313;SDS011;143;51.634;7.112;2023-04-06T01:08:41;15.00;;;9.03;;
313;SDS011;143;51.634;7.112;2023-04-06T01:11:07;12.60;;;8.23;;
313;SDS011;143;51.634;7.112;2023-04-06T01:13:32;14.60;;;7.67;;
313;SDS011;143;51.634;7.112;2023-04-06T01:15:58;15.80;;;7.37;;
313;SDS011;143;51.634;7.112;2023-04-06T01:18:28;13.90;;;7.90;;
313;SDS011;143;51.634;7.112;2023-04-06T01:20:54;14.45;;;7.57;;
313;SDS011;143;51.634;7.112;2023-04-06T01:23:20;13.15;;;8.38;;
313;SDS011;143;51.634;7.112;2023-04-06T01:25:46;17.37;;;8.60;;
313;SDS011;143;51.634;7.112;2023-04-06T01:28:12;13.47;;;7.97;;
313;SDS011;143;51.634;7.112;2023-04-06T01:30:38;11.73;;;8.20;;
313;SDS011;143;51.634;7.112;2023-04-06T01:33:03;17.30;;;7.50;;
313;SDS011;143;51.634;7.112;2023-04-06T01:35:29;17.30;;;9.27;;
313;SDS011;143;51.634;7.112;2023-04-06T01:37:55;15.07;;;8.98;;
313;SDS011;143;51.634;7.112;2023-04-06T01:40:21;16.97;;;9.43;;
313;SDS011;143;51.634;7.112;2023-04-06T01:42:47;18.57;;;10.20;;
313;SDS011;143;51.634;7.112;2023-04-06T01:45:13;17.50;;;9.97;;
313;SDS011;143;51.634;7.112;2023-04-06T01:47:38;19.13;;;11.20;;
313;SDS011;143;51.634;7.112;2023-04-06T01:50:04;19.27;;;10.57;;
313;SDS011;143;51.634;7.112;2023-04-06T01:52:31;19.25;;;10.00;;
313;SDS011;143;51.634;7.112;2023-04-06T01:54:58;16.80;;;10.32;;
313;SDS011;143;51.634;7.112;2023-04-06T01:57:23;14.50;;;9.10;;
313;SDS011;143;51.634;7.112;2023-04-06T01:59:50;16.13;;;10.10;;
313;SDS011;143;51.634;7.112;2023-04-06T02:02:16;23.50;;;11.68;;
313;SDS011;143;51.634;7.112;2023-04-06T02:04:42;21.45;;;11.20;;
313;SDS011;143;51.634;7.112;2023-04-06T02:07:08;20.20;;;11.47;;
313;SDS011;143;51.634;7.112;2023-04-06T02:09:34;15.03;;;9.20;;
313;SDS011;143;51.634;7.112;2023-04-06T02:12:00;20.70;;;10.38;;
313;SDS011;143;51.634;7.112;2023-04-06T02:14:26;18.67;;;10.70;;
313;SDS011;143;51.634;7.112;2023-04-06T02:16:52;22.27;;;9.82;;
313;SDS011;143;51.634;7.112;2023-04-06T02:19:18;16.30;;;9.40;;
313;SDS011;143;51.634;7.112;2023-04-06T02:21:44;18.43;;;10.13;;
313;SDS011;143;51.634;7.112;2023-04-06T02:24:10;20.92;;;9.95;;
313;SDS011;143;51.634;7.112;2023-04-06T02:26:36;14.47;;;9.37;;
313;SDS011;143;51.634;7.112;2023-04-06T02:29:01;15.47;;;9.17;;
313;SDS011;143;51.634;7.112;2023-04-06T02:31:27;20.70;;;9.70;;
313;SDS011;143;51.634;7.112;2023-04-06T02:33:53;18.30;;;10.53;;
313;SDS011;143;51.634;7.112;2023-04-06T02:36:19;15.10;;;9.47;;
313;SDS011;143;51.634;7.112;2023-04-06T02:38:45;16.40;;;9.07;;
313;SDS011;143;51.634;7.112;2023-04-06T02:41:10;15.20;;;9.27;;
313;SDS011;143;51.634;7.112;2023-04-06T02:43:36;17.17;;;9.30;;
313;SDS011;143;51.634;7.112;2023-04-06T02:46:02;21.10;;;10.33;;
313;SDS011;143;51.634;7.112;2023-04-06T02:48:28;15.90;;;9.80;;
313;SDS011;143;51.634;7.112;2023-04-06T02:50:53;16.77;;;9.03;;
313;SDS011;143;51.634;7.112;2023-04-06T02:53:19;22.10;;;11.40;;
313;SDS011;143;51.634;7.112;2023-04-06T02:55:45;17.40;;;10.00;;
313;SDS011;143;51.634;7.112;2023-04-06T02:58:11;16.10;;;10.40;;
313;SDS011;143;51.634;7.112;2023-04-06T03:00:36;24.73;;;10.33;;
313;SDS011;143;51.634;7.112;2023-04-06T03:03:02;20.67;;;11.83;;
313;SDS011;143;51.634;7.112;2023-04-06T03:05:28;18.33;;;9.53;;
313;SDS011;143;51.634;7.112;2023-04-06T03:07:54;22.40;;;11.40;;
313;SDS011;143;51.634;7.112;2023-04-06T03:10:19;21.50;;;9.57;;
313;SDS011;143;51.634;7.112;2023-04-06T03:12:45;18.53;;;9.93;;
313;SDS011;143;51.634;7.112;2023-04-06T03:15:11;18.40;;;10.20;;
313;SDS011;143;51.634;7.112;2023-04-06T03:17:37;17.17;;;9.83;;
313;SDS011;143;51.634;7.112;2023-04-06T03:20:04;20.90;;;10.65;;
313;SDS011;143;51.634;7.112;2023-04-06T03:22:30;18.75;;;11.25;;
313;SDS011;143;51.634;7.112;2023-04-06T03:24:55;23.13;;;11.00;;
313;SDS011;143;51.634;7.112;2023-04-06T03:27:21;14.10;;;8.90;;
313;SDS011;143;51.634;7.112;2023-04-06T03:29:47;22.13;;;12.00;;
313;SDS011;143;51.634;7.112;2023-04-06T03:32:12;16.13;;;9.30;;
313;SDS011;143;51.634;7.112;2023-04-06T03:34:38;16.10;;;10.47;;
313;SDS011;143;51.634;7.112;2023-04-06T03:37:04;23.23;;;10.05;;
313;SDS011;143;51.634;7.112;2023-04-06T03:39:30;15.50;;;9.70;;
313;SDS011;143;51.634;7.112;2023-04-06T03:41:56;22.50;;;10.40;;
313;SDS011;143;51.634;7.112;2023-04-06T03:44:22;18.73;;;10.30;;
313;SDS011;143;51.634;7.112;2023-04-06T03:46:48;30.43;;;10.33;;
313;SDS011;143;51.634;7.112;2023-04-06T03:49:13;17.53;;;9.67;;
313;SDS011;143;51.634;7.112;2023-04-06T03:51:39;17.33;;;9.57;;
313;SDS011;143;51.634;7.112;2023-04-06T03:54:05;17.77;;;11.33;;
313;SDS011;143;51.634;7.112;2023-04-06T03:56:30;23.83;;;12.63;;
313;SDS011;143;51.634;7.112;2023-04-06T03:58:56;22.03;;;11.50;;
313;SDS011;143;51.634;7.112;2023-04-06T04:01:22;28.80;;;11.10;;
313;SDS011;143;51.634;7.112;2023-04-06T04:03:48;22.07;;;11.80;;
313;SDS011;143;51.634;7.112;2023-04-06T04:06:13;17.83;;;10.50;;
313;SDS011;143;51.634;7.112;2023-04-06T04:08:39;15.43;;;9.53;;
313;SDS011;143;51.634;7.112;2023-04-06T04:11:05;19.23;;;10.70;;
313;SDS011;143;51.634;7.112;2023-04-06T04:13:30;18.03;;;10.37;;
313;SDS011;143;51.634;7.112;2023-04-06T04:15:56;16.23;;;9.37;;
313;SDS011;143;51.634;7.112;2023-04-06T04:18:22;19.77;;;10.10;;
313;SDS011;143;51.634;7.112;2023-04-06T04:20:49;17.92;;;9.38;;
313;SDS011;143;51.634;7.112;2023-04-06T04:23:14;19.37;;;9.87;;
313;SDS011;143;51.634;7.112;2023-04-06T04:25:40;18.23;;;10.03;;
313;SDS011;143;51.634;7.112;2023-04-06T04:28:06;19.37;;;11.40;;
313;SDS011;143;51.634;7.112;2023-04-06T04:30:31;20.97;;;10.37;;
313;SDS011;143;51.634;7.112;2023-04-06T04:32:57;30.80;;;11.03;;
313;SDS011;143;51.634;7.112;2023-04-06T04:35:23;20.87;;;10.07;;
313;SDS011;143;51.634;7.112;2023-04-06T04:37:48;18.03;;;10.77;;
313;SDS011;143;51.634;7.112;2023-04-06T04:40:14;18.47;;;10.60;;
313;SDS011;143;51.634;7.112;2023-04-06T04:42:41;25.92;;;11.90;;
313;SDS011;143;51.634;7.112;2023-04-06T04:45:07;24.20;;;11.20;;
313;SDS011;143;51.634;7.112;2023-04-06T04:47:33;18.52;;;10.55;;
313;SDS011;143;51.634;7.112;2023-04-06T04:49:59;17.33;;;11.00;;
313;SDS011;143;51.634;7.112;2023-04-06T04:52:24;16.73;;;10.03;;
313;SDS011;143;51.634;7.112;2023-04-06T04:54:50;25.40;;;11.37;;
313;SDS011;143;51.634;7.112;2023-04-06T04:57:16;23.87;;;11.27;;
313;SDS011;143;51.634;7.112;2023-04-06T04:59:42;28.10;;;11.73;;
313;SDS011;143;51.634;7.112;2023-04-06T05:02:08;22.65;;;10.73;;
313;SDS011;143;51.634;7.112;2023-04-06T05:04:35;23.47;;;10.73;;
313;SDS011;143;51.634;7.112;2023-04-06T05:07:04;21.67;;;11.65;;
313;SDS011;143;51.634;7.112;2023-04-06T05:09:31;20.77;;;10.55;;
313;SDS011;143;51.634;7.112;2023-04-06T05:11:57;19.93;;;10.13;;
313;SDS011;143;51.634;7.112;2023-04-06T05:14:23;20.02;;;10.45;;
313;SDS011;143;51.634;7.112;2023-04-06T05:16:49;19.57;;;10.73;;
313;SDS011;143;51.634;7.112;2023-04-06T05:19:15;18.60;;;10.90;;
313;SDS011;143;51.634;7.112;2023-04-06T05:21:41;23.27;;;10.77;;
313;SDS011;143;51.634;7.112;2023-04-06T05:24:06;20.40;;;11.70;;
313;SDS011;143;51.634;7.112;2023-04-06T05:26:33;20.95;;;11.75;;
313;SDS011;143;51.634;7.112;2023-04-06T05:28:59;16.53;;;11.20;;
313;SDS011;143;51.634;7.112;2023-04-06T05:31:25;23.20;;;10.95;;
313;SDS011;143;51.634;7.112;2023-04-06T05:33:51;18.83;;;10.40;;
313;SDS011;143;51.634;7.112;2023-04-06T05:36:17;23.23;;;11.90;;
313;SDS011;143;51.634;7.112;2023-04-06T05:38:42;21.40;;;11.27;;
313;SDS011;143;51.634;7.112;2023-04-06T05:41:08;18.17;;;9.87;;
313;SDS011;143;51.634;7.112;2023-04-06T05:43:34;20.80;;;11.30;;
313;SDS011;143;51.634;7.112;2023-04-06T05:46:00;19.83;;;10.50;;
313;SDS011;143;51.634;7.112;2023-04-06T05:48:25;18.60;;;10.63;;
313;SDS011;143;51.634;7.112;2023-04-06T05:50:51;18.33;;;9.60;;
313;SDS011;143;51.634;7.112;2023-04-06T05:53:18;20.25;;;11.52;;
313;SDS011;143;51.634;7.112;2023-04-06T05:55:43;19.47;;;10.70;;
313;SDS011;143;51.634;7.112;2023-04-06T05:58:09;25.10;;;10.87;;
313;SDS011;143;51.634;7.112;2023-04-06T06:00:35;30.80;;;11.90;;
313;SDS011;143;51.634;7.112;2023-04-06T06:03:00;23.00;;;11.73;;
313;SDS011;143;51.634;7.112;2023-04-06T06:05:29;19.30;;;10.52;;
313;SDS011;143;51.634;7.112;2023-04-06T06:07:55;22.10;;;12.00;;
313;SDS011;143;51.634;7.112;2023-04-06T06:10:21;20.87;;;11.87;;
313;SDS011;143;51.634;7.112;2023-04-06T06:12:46;25.10;;;11.87;;
313;SDS011;143;51.634;7.112;2023-04-06T06:15:12;17.40;;;10.87;;
313;SDS011;143;51.634;7.112;2023-04-06T06:17:38;21.73;;;11.00;;
313;SDS011;143;51.634;7.112;2023-04-06T06:20:05;18.20;;;11.33;;
313;SDS011;143;51.634;7.112;2023-04-06T06:22:32;22.83;;;11.95;;
313;SDS011;143;51.634;7.112;2023-04-06T06:24:57;16.50;;;10.00;;
313;SDS011;143;51.634;7.112;2023-04-06T06:27:23;23.10;;;11.47;;
313;SDS011;143;51.634;7.112;2023-04-06T06:29:49;18.40;;;10.83;;
313;SDS011;143;51.634;7.112;2023-04-06T06:32:15;18.97;;;10.10;;
313;SDS011;143;51.634;7.112;2023-04-06T06:34:41;20.07;;;10.47;;
313;SDS011;143;51.634;7.112;2023-04-06T06:37:06;20.40;;;10.87;;
313;SDS011;143;51.634;7.112;2023-04-06T06:39:32;22.10;;;11.40;;
313;SDS011;143;51.634;7.112;2023-04-06T06:41:58;20.10;;;11.70;;
313;SDS011;143;51.634;7.112;2023-04-06T06:44:26;17.92;;;10.15;;
313;SDS011;143;51.634;7.112;2023-04-06T06:46:52;25.63;;;11.77;;
313;SDS011;143;51.634;7.112;2023-04-06T06:49:18;24.20;;;11.50;;
313;SDS011;143;51.634;7.112;2023-04-06T06:51:44;18.20;;;9.63;;
313;SDS011;143;51.634;7.112;2023-04-06T06:54:11;17.75;;;9.85;;
313;SDS011;143;51.634;7.112;2023-04-06T06:56:37;22.17;;;10.95;;
313;SDS011;143;51.634;7.112;2023-04-06T06:59:04;17.40;;;9.52;;
313;SDS011;143;51.634;7.112;2023-04-06T07:01:31;20.85;;;9.32;;
313;SDS011;143;51.634;7.112;2023-04-06T07:03:58;19.95;;;11.02;;
313;SDS011;143;51.634;7.112;2023-04-06T07:06:24;16.30;;;9.57;;
313;SDS011;143;51.634;7.112;2023-04-06T07:08:50;20.53;;;9.97;;
313;SDS011;143;51.634;7.112;2023-04-06T07:11:15;13.33;;;8.63;;
313;SDS011;143;51.634;7.112;2023-04-06T07:13:42;16.93;;;9.50;;
313;SDS011;143;51.634;7.112;2023-04-06T07:16:08;16.50;;;9.85;;
313;SDS011;143;51.634;7.112;2023-04-06T07:18:34;25.17;;;11.23;;
313;SDS011;143;51.634;7.112;2023-04-06T07:21:00;22.20;;;10.18;;
313;SDS011;143;51.634;7.112;2023-04-06T07:23:26;20.73;;;10.10;;
313;SDS011;143;51.634;7.112;2023-04-06T07:25:52;17.10;;;10.23;;
313;SDS011;143;51.634;7.112;2023-04-06T07:28:19;17.80;;;9.65;;
313;SDS011;143;51.634;7.112;2023-04-06T07:30:45;19.37;;;10.23;;
313;SDS011;143;51.634;7.112;2023-04-06T07:33:12;16.63;;;9.93;;
313;SDS011;143;51.634;7.112;2023-04-06T07:35:38;18.40;;;10.60;;
313;SDS011;143;51.634;7.112;2023-04-06T07:38:04;25.15;;;11.57;;
313;SDS011;143;51.634;7.112;2023-04-06T07:40:30;21.60;;;11.40;;
313;SDS011;143;51.634;7.112;2023-04-06T07:42:57;22.53;;;10.40;;
313;SDS011;143;51.634;7.112;2023-04-06T07:45:23;20.83;;;12.30;;
313;SDS011;143;51.634;7.112;2023-04-06T07:47:49;26.43;;;11.73;;
313;SDS011;143;51.634;7.112;2023-04-06T07:50:15;22.00;;;11.43;;
313;SDS011;143;51.634;7.112;2023-04-06T07:52:41;21.00;;;10.73;;
313;SDS011;143;51.634;7.112;2023-04-06T07:55:07;21.60;;;11.30;;
313;SDS011;143;51.634;7.112;2023-04-06T07:57:33;23.57;;;11.30;;
313;SDS011;143;51.634;7.112;2023-04-06T07:59:58;20.13;;;10.50;;
313;SDS011;143;51.634;7.112;2023-04-06T08:02:25;29.23;;;11.33;;
313;SDS011;143;51.634;7.112;2023-04-06T08:04:51;22.67;;;10.50;;
313;SDS011;143;51.634;7.112;2023-04-06T08:07:17;18.80;;;10.63;;
313;SDS011;143;51.634;7.112;2023-04-06T08:09:45;21.00;;;10.50;;
313;SDS011;143;51.634;7.112;2023-04-06T08:12:11;35.07;;;10.93;;
313;SDS011;143;51.634;7.112;2023-04-06T08:14:37;24.47;;;10.30;;
313;SDS011;143;51.634;7.112;2023-04-06T08:17:03;25.77;;;11.13;;
313;SDS011;143;51.634;7.112;2023-04-06T08:19:29;27.13;;;11.30;;
313;SDS011;143;51.634;7.112;2023-04-06T08:21:55;33.93;;;12.97;;
313;SDS011;143;51.634;7.112;2023-04-06T08:24:21;26.43;;;11.93;;
313;SDS011;143;51.634;7.112;2023-04-06T08:26:46;25.20;;;11.70;;
313;SDS011;143;51.634;7.112;2023-04-06T08:29:12;19.60;;;11.00;;
313;SDS011;143;51.634;7.112;2023-04-06T08:31:38;22.03;;;11.00;;
313;SDS011;143;51.634;7.112;2023-04-06T08:34:04;23.00;;;12.53;;
313;SDS011;143;51.634;7.112;2023-04-06T08:36:31;19.57;;;10.20;;
313;SDS011;143;51.634;7.112;2023-04-06T08:38:56;17.30;;;10.47;;
313;SDS011;143;51.634;7.112;2023-04-06T08:41:22;21.27;;;11.40;;
313;SDS011;143;51.634;7.112;2023-04-06T08:43:49;18.73;;;11.23;;
313;SDS011;143;51.634;7.112;2023-04-06T08:46:21;20.30;;;11.67;;
313;SDS011;143;51.634;7.112;2023-04-06T08:48:48;19.27;;;10.80;;
313;SDS011;143;51.634;7.112;2023-04-06T08:51:17;23.40;;;11.23;;
313;SDS011;143;51.634;7.112;2023-04-06T08:53:45;20.27;;;10.73;;
313;SDS011;143;51.634;7.112;2023-04-06T08:56:11;20.80;;;11.30;;
313;SDS011;143;51.634;7.112;2023-04-06T08:58:38;15.93;;;10.50;;
313;SDS011;143;51.634;7.112;2023-04-06T09:01:06;29.37;;;11.70;;
313;SDS011;143;51.634;7.112;2023-04-06T09:03:35;22.30;;;12.37;;
313;SDS011;143;51.634;7.112;2023-04-06T09:06:04;25.13;;;11.93;;
313;SDS011;143;51.634;7.112;2023-04-06T09:08:35;21.73;;;11.33;;
313;SDS011;143;51.634;7.112;2023-04-06T09:11:05;22.00;;;12.70;;
313;SDS011;143;51.634;7.112;2023-04-06T09:13:31;18.43;;;11.40;;
313;SDS011;143;51.634;7.112;2023-04-06T09:16:08;23.07;;;11.20;;
313;SDS011;143;51.634;7.112;2023-04-06T09:18:34;27.73;;;12.40;;
313;SDS011;143;51.634;7.112;2023-04-06T09:21:04;22.20;;;12.10;;
313;SDS011;143;51.634;7.112;2023-04-06T09:23:30;27.27;;;11.67;;
313;SDS011;143;51.634;7.112;2023-04-06T09:26:07;51.40;;;12.90;;
313;SDS011;143;51.634;7.112;2023-04-06T09:28:49;20.63;;;12.43;;
313;SDS011;143;51.634;7.112;2023-04-06T09:31:22;21.17;;;11.50;;
313;SDS011;143;51.634;7.112;2023-04-06T09:33:52;19.10;;;12.30;;
313;SDS011;143;51.634;7.112;2023-04-06T09:36:19;25.17;;;13.20;;
313;SDS011;143;51.634;7.112;2023-04-06T09:38:54;26.67;;;11.63;;
313;SDS011;143;51.634;7.112;2023-04-06T09:41:22;26.63;;;13.23;;
313;SDS011;143;51.634;7.112;2023-04-06T09:44:11;24.40;;;12.40;;
313;SDS011;143;51.634;7.112;2023-04-06T09:46:42;27.93;;;14.93;;
313;SDS011;143;51.634;7.112;2023-04-06T09:49:10;22.73;;;12.43;;
313;SDS011;143;51.634;7.112;2023-04-06T09:51:39;22.43;;;11.70;;
313;SDS011;143;51.634;7.112;2023-04-06T09:54:16;29.80;;;12.63;;
313;SDS011;143;51.634;7.112;2023-04-06T09:56:46;25.23;;;13.03;;
313;SDS011;143;51.634;7.112;2023-04-06T09:59:41;25.27;;;14.10;;
313;SDS011;143;51.634;7.112;2023-04-06T10:02:31;22.93;;;13.30;;
313;SDS011;143;51.634;7.112;2023-04-06T10:07:48;24.30;;;13.00;;
313;SDS011;143;51.634;7.112;2023-04-06T10:10:16;24.00;;;12.30;;
313;SDS011;143;51.634;7.112;2023-04-06T10:12:42;26.00;;;13.23;;
313;SDS011;143;51.634;7.112;2023-04-06T10:15:09;21.70;;;12.03;;
313;SDS011;143;51.634;7.112;2023-04-06T10:17:36;24.20;;;11.63;;
313;SDS011;143;51.634;7.112;2023-04-06T10:22:43;24.93;;;13.30;;
313;SDS011;143;51.634;7.112;2023-04-06T10:25:36;25.77;;;14.00;;
313;SDS011;143;51.634;7.112;2023-04-06T10:28:06;25.60;;;13.43;;
313;SDS011;143;51.634;7.112;2023-04-06T10:30:33;22.97;;;13.07;;
313;SDS011;143;51.634;7.112;2023-04-06T10:33:00;22.30;;;12.90;;
313;SDS011;143;51.634;7.112;2023-04-06T10:35:37;28.50;;;13.43;;
313;SDS011;143;51.634;7.112;2023-04-06T10:38:04;20.80;;;11.77;;
313;SDS011;143;51.634;7.112;2023-04-06T10:40:30;27.33;;;12.43;;
313;SDS011;143;51.634;7.112;2023-04-06T10:43:06;27.60;;;12.57;;
313;SDS011;143;51.634;7.112;2023-04-06T10:45:56;25.33;;;14.27;;
313;SDS011;143;51.634;7.112;2023-04-06T10:48:24;30.47;;;13.20;;
313;SDS011;143;51.634;7.112;2023-04-06T10:51:01;28.17;;;13.93;;
313;SDS011;143;51.634;7.112;2023-04-06T10:53:27;29.57;;;14.53;;
313;SDS011;143;51.634;7.112;2023-04-06T10:55:56;32.93;;;15.40;;
313;SDS011;143;51.634;7.112;2023-04-06T10:58:26;25.23;;;14.40;;
313;SDS011;143;51.634;7.112;2023-04-06T11:00:52;21.77;;;13.33;;
313;SDS011;143;51.634;7.112;2023-04-06T11:03:19;24.03;;;12.83;;
313;SDS011;143;51.634;7.112;2023-04-06T11:05:45;25.80;;;13.57;;
313;SDS011;143;51.634;7.112;2023-04-06T11:08:31;27.10;;;14.30;;
313;SDS011;143;51.634;7.112;2023-04-06T11:13:53;28.63;;;14.93;;
313;SDS011;143;51.634;7.112;2023-04-06T11:18:57;27.33;;;14.07;;
313;SDS011;143;51.634;7.112;2023-04-06T11:26:31;30.50;;;16.07;;
313;SDS011;143;51.634;7.112;2023-04-06T11:29:01;31.00;;;15.47;;
313;SDS011;143;51.634;7.112;2023-04-06T11:31:27;30.00;;;15.80;;
313;SDS011;143;51.634;7.112;2023-04-06T11:33:56;31.00;;;16.73;;
313;SDS011;143;51.634;7.112;2023-04-06T11:36:22;34.63;;;17.67;;
313;SDS011;143;51.634;7.112;2023-04-06T11:38:48;36.50;;;19.50;;
313;SDS011;143;51.634;7.112;2023-04-06T11:41:15;34.73;;;17.10;;
313;SDS011;143;51.634;7.112;2023-04-06T11:43:46;34.90;;;18.00;;
313;SDS011;143;51.634;7.112;2023-04-06T11:46:16;33.90;;;17.60;;
313;SDS011;143;51.634;7.112;2023-04-06T11:48:45;29.10;;;16.53;;
313;SDS011;143;51.634;7.112;2023-04-06T11:51:11;34.43;;;18.60;;
313;SDS011;143;51.634;7.112;2023-04-06T11:53:46;30.10;;;16.33;;
313;SDS011;143;51.634;7.112;2023-04-06T11:56:22;30.53;;;15.53;;
313;SDS011;143;51.634;7.112;2023-04-06T11:58:49;26.27;;;15.67;;
313;SDS011;143;51.634;7.112;2023-04-06T12:01:14;23.90;;;13.77;;
313;SDS011;143;51.634;7.112;2023-04-06T12:03:40;26.53;;;14.20;;
313;SDS011;143;51.634;7.112;2023-04-06T12:06:06;41.47;;;15.70;;
313;SDS011;143;51.634;7.112;2023-04-06T12:08:32;28.80;;;14.43;;
313;SDS011;143;51.634;7.112;2023-04-06T12:10:57;30.20;;;14.23;;
313;SDS011;143;51.634;7.112;2023-04-06T12:13:24;25.07;;;13.37;;
313;SDS011;143;51.634;7.112;2023-04-06T12:15:51;28.33;;;14.30;;
313;SDS011;143;51.634;7.112;2023-04-06T12:18:17;28.23;;;13.70;;
313;SDS011;143;51.634;7.112;2023-04-06T12:20:42;26.07;;;13.07;;
313;SDS011;143;51.634;7.112;2023-04-06T12:23:08;28.57;;;14.00;;
313;SDS011;143;51.634;7.112;2023-04-06T12:25:34;29.20;;;13.10;;
313;SDS011;143;51.634;7.112;2023-04-06T12:28:00;30.23;;;13.40;;
313;SDS011;143;51.634;7.112;2023-04-06T12:30:26;26.33;;;12.10;;
313;SDS011;143;51.634;7.112;2023-04-06T12:32:51;29.10;;;12.80;;
313;SDS011;143;51.634;7.112;2023-04-06T12:35:17;29.03;;;13.07;;
313;SDS011;143;51.634;7.112;2023-04-06T12:37:43;27.50;;;11.97;;
313;SDS011;143;51.634;7.112;2023-04-06T12:40:09;25.57;;;13.00;;
313;SDS011;143;51.634;7.112;2023-04-06T12:42:38;28.03;;;13.20;;
313;SDS011;143;51.634;7.112;2023-04-06T12:45:05;24.03;;;12.07;;
313;SDS011;143;51.634;7.112;2023-04-06T12:47:31;25.30;;;12.57;;
313;SDS011;143;51.634;7.112;2023-04-06T12:49:57;24.77;;;12.70;;
313;SDS011;143;51.634;7.112;2023-04-06T12:52:23;32.17;;;13.30;;
313;SDS011;143;51.634;7.112;2023-04-06T12:54:48;25.50;;;13.10;;
313;SDS011;143;51.634;7.112;2023-04-06T12:57:14;28.60;;;13.13;;
313;SDS011;143;51.634;7.112;2023-04-06T12:59:42;28.13;;;13.67;;
313;SDS011;143;51.634;7.112;2023-04-06T13:02:09;28.23;;;13.10;;
313;SDS011;143;51.634;7.112;2023-04-06T13:04:35;24.57;;;13.17;;
313;SDS011;143;51.634;7.112;2023-04-06T13:07:01;33.47;;;14.77;;
313;SDS011;143;51.634;7.112;2023-04-06T13:09:27;27.70;;;12.50;;
313;SDS011;143;51.634;7.112;2023-04-06T13:11:52;25.47;;;12.77;;
313;SDS011;143;51.634;7.112;2023-04-06T13:14:18;30.53;;;15.37;;
313;SDS011;143;51.634;7.112;2023-04-06T13:16:44;26.13;;;13.33;;
313;SDS011;143;51.634;7.112;2023-04-06T13:19:09;30.13;;;14.50;;
313;SDS011;143;51.634;7.112;2023-04-06T13:21:35;26.80;;;13.77;;
313;SDS011;143;51.634;7.112;2023-04-06T13:24:01;27.67;;;13.60;;
313;SDS011;143;51.634;7.112;2023-04-06T13:26:27;28.63;;;14.70;;
313;SDS011;143;51.634;7.112;2023-04-06T13:28:53;30.97;;;14.50;;
313;SDS011;143;51.634;7.112;2023-04-06T13:31:21;29.73;;;13.80;;
313;SDS011;143;51.634;7.112;2023-04-06T13:33:47;32.27;;;14.40;;
313;SDS011;143;51.634;7.112;2023-04-06T13:36:13;24.93;;;13.30;;
313;SDS011;143;51.634;7.112;2023-04-06T13:38:39;30.43;;;13.13;;
313;SDS011;143;51.634;7.112;2023-04-06T13:41:05;32.30;;;15.77;;
313;SDS011;143;51.634;7.112;2023-04-06T13:43:31;21.73;;;11.60;;
313;SDS011;143;51.634;7.112;2023-04-06T13:45:57;21.30;;;11.73;;
313;SDS011;143;51.634;7.112;2023-04-06T13:48:25;27.07;;;12.40;;
313;SDS011;143;51.634;7.112;2023-04-06T13:50:53;23.20;;;12.40;;
313;SDS011;143;51.634;7.112;2023-04-06T13:53:19;23.23;;;11.90;;
313;SDS011;143;51.634;7.112;2023-04-06T13:55:51;24.30;;;12.90;;
313;SDS011;143;51.634;7.112;2023-04-06T13:58:18;23.90;;;12.23;;
313;SDS011;143;51.634;7.112;2023-04-06T14:00:43;24.03;;;11.80;;
313;SDS011;143;51.634;7.112;2023-04-06T14:03:09;21.37;;;10.90;;
313;SDS011;143;51.634;7.112;2023-04-06T14:05:35;22.77;;;11.97;;
313;SDS011;143;51.634;7.112;2023-04-06T14:08:01;24.10;;;10.00;;
313;SDS011;143;51.634;7.112;2023-04-06T14:10:26;23.37;;;8.10;;
313;SDS011;143;51.634;7.112;2023-04-06T14:12:52;33.47;;;10.20;;
313;SDS011;143;51.634;7.112;2023-04-06T14:15:18;20.73;;;9.37;;
313;SDS011;143;51.634;7.112;2023-04-06T14:17:44;18.87;;;10.20;;
313;SDS011;143;51.634;7.112;2023-04-06T14:20:10;19.57;;;11.17;;
313;SDS011;143;51.634;7.112;2023-04-06T14:22:39;19.30;;;10.50;;
313;SDS011;143;51.634;7.112;2023-04-06T14:25:06;17.50;;;10.13;;
313;SDS011;143;51.634;7.112;2023-04-06T14:27:32;21.07;;;11.33;;
313;SDS011;143;51.634;7.112;2023-04-06T14:29:58;21.77;;;10.80;;
313;SDS011;143;51.634;7.112;2023-04-06T14:32:23;17.43;;;10.50;;
313;SDS011;143;51.634;7.112;2023-04-06T14:34:50;17.90;;;10.20;;
313;SDS011;143;51.634;7.112;2023-04-06T14:37:16;26.37;;;12.03;;
313;SDS011;143;51.634;7.112;2023-04-06T14:39:42;22.20;;;11.73;;
313;SDS011;143;51.634;7.112;2023-04-06T14:42:08;21.30;;;11.70;;
313;SDS011;143;51.634;7.112;2023-04-06T14:44:33;19.60;;;10.73;;
313;SDS011;143;51.634;7.112;2023-04-06T14:47:01;20.30;;;11.27;;
313;SDS011;143;51.634;7.112;2023-04-06T14:49:28;18.93;;;10.20;;
313;SDS011;143;51.634;7.112;2023-04-06T14:51:54;22.40;;;11.13;;
313;SDS011;143;51.634;7.112;2023-04-06T14:54:20;21.67;;;11.90;;
313;SDS011;143;51.634;7.112;2023-04-06T14:56:46;25.90;;;11.73;;
313;SDS011;143;51.634;7.112;2023-04-06T14:59:11;23.47;;;11.73;;
313;SDS011;143;51.634;7.112;2023-04-06T15:01:37;26.13;;;11.37;;
313;SDS011;143;51.634;7.112;2023-04-06T15:04:03;20.33;;;10.80;;
313;SDS011;143;51.634;7.112;2023-04-06T15:06:29;20.10;;;10.67;;
313;SDS011;143;51.634;7.112;2023-04-06T15:08:55;20.87;;;11.47;;
313;SDS011;143;51.634;7.112;2023-04-06T15:11:21;21.03;;;10.20;;
313;SDS011;143;51.634;7.112;2023-04-06T15:13:46;18.43;;;10.40;;
313;SDS011;143;51.634;7.112;2023-04-06T15:16:12;22.00;;;10.90;;
313;SDS011;143;51.634;7.112;2023-04-06T15:18:39;15.67;;;9.00;;
313;SDS011;143;51.634;7.112;2023-04-06T15:21:05;18.70;;;10.50;;
313;SDS011;143;51.634;7.112;2023-04-06T15:23:32;19.37;;;9.90;;
313;SDS011;143;51.634;7.112;2023-04-06T15:25:59;20.97;;;10.20;;
313;SDS011;143;51.634;7.112;2023-04-06T15:28:26;14.37;;;9.40;;
313;SDS011;143;51.634;7.112;2023-04-06T15:30:52;21.90;;;9.70;;